Airfield :
LOGIN :

Register | Disclaimer

   EN    FR    IT 

 










Legend :    VFR   Marginal VFR   IFR   Intensive IFR   Very Intensive IFR
Visi :
Ceiling :
>= 8 km
>= 3000ft
5 to 8 km
1000 to 3000 ft
1500m to 5 km
500 to 1000 ft
800 to 1500m
200 to 500 ft
< 800m
< 200 ft
Symbols :   Thunderstorms  Fog  Heavy snow  Heavy precipitations  Wind > 20 kt
SIGMETs :     Misc.  Thunderstorms  Icing  Turbulence  Mountain Waves  Volcanic Ashes







- Airport Elevation : 194 ft
- IATA code : IEG


EPZG - Zielona Gora Babimost

CURRENT METAR :
  • 190230Z 23015KT 9999 OVC015 04/02 Q1007

EXPIRED METARs :
  • 190200Z 22015KT 9999 OVC016 04/02 Q1007
  • 190130Z 23016KT 9999 OVC016 04/02 Q1008
  • 190100Z 22014KT 9999 SCT015 BKN019 04/02 Q1008
  • 190030Z 23015KT 9999 SCT015 BKN022 04/02 Q1008
  • 190000Z 23012KT 9999 OVC017 04/02 Q1008

TAF TAF EPZG
Valid from the 19 at 03:00 until the 19 at 12:00 UTC


190230Z 1903/1912 23016KT 9999 BKN016
TEMPO 1903/1912 BKN012
No reported NOTAMs for that airfield.



MET'MAP, your aeronautical weather chart ! - Copyright ORBIFLY December 2007 - Disclaimer

ORBIFLY MET'MAP TEAM :

Programming & Development : Alexandra Zaïnal
Concept & Development : Baudouin d'Aumeries
Co-Development & Prog : Marc-Olivier Méhu
Technical & hardware support : Manuel Goepfert

Contact : metmap@orbifly.com




SOURCES & CREDITS :

   NOAA